• Join FlightAware (Why Join?)
  • Login
  • US Flag 
10:27AM EDT


 

Airport Tracker/Info


-or-


 

Live Flight TrackerFlight Track Log ✈ CSH9418 ✈ 17-Jan-2014 ✈ ZSLG / LYG - ZSSS / SHA

Flight Track Log - Related Links

Times and Time Zones

All times are in EST time to prevent confusion due to time zone crossing. See the CSH9418 flight status page for this flight to view local times or setup timezone preferences in your user account.

Time Position Orientation Groundspeed Altitude Reporting Facility
EST Latitude Longitude Course Direction KTS MPH feet Rate Location/Type
10:44AM 33.3264 119.8088 148° Southeast  Level Estimated
10:45AM 33.2639 119.8549 148° Southeast  Level Estimated
10:46AM 33.2014 119.9009 148° Southeast  Level Estimated
10:47AM 33.1390 119.9468 148° Southeast  Level Estimated
10:48AM 33.0765 119.9927 148° Southeast  Level Estimated
10:49AM 33.0139 120.0385 148° Southeast  Level Estimated
10:50AM 32.9514 120.0842 148° Southeast  Level Estimated
10:51AM 32.8889 120.1298 148° Southeast  Level Estimated
10:52AM 32.8263 120.1754 149° Southeast  Level Estimated
10:53AM 32.7637 120.2210 149° Southeast  Level Estimated
10:54AM 32.7011 120.2664 149° Southeast  Level Estimated
10:55AM 32.6385 120.3118 149° Southeast  Level Estimated
10:56AM 32.5759 120.3572 149° Southeast  Level Estimated
10:57AM 32.5132 120.4025 149° Southeast  Level Estimated
10:58AM 32.4505 120.4477 149° Southeast  Level Estimated
10:59AM 32.3879 120.4928 149° Southeast  Level Estimated
11:00AM 32.3252 120.5379 149° Southeast  Level Estimated
11:01AM 32.2625 120.5829 149° Southeast  Level Estimated
11:02AM 32.1997 120.6279 149° Southeast  Level Estimated
11:03AM 32.1370 120.6728 149° Southeast  Level Estimated
11:04AM 32.0742 120.7176 149° Southeast  Level Estimated
11:05AM 32.0114 120.7624 149° Southeast  Level Estimated
11:06AM 31.9487 120.8071 149° Southeast  Level Estimated
11:07AM 31.8858 120.8518 149° Southeast  Level Estimated
11:08AM 31.8230 120.8964 149° Southeast  Level Estimated
11:09AM 31.7602 120.9409 149° Southeast  Level Estimated
11:10AM 31.6973 120.9854 149° Southeast  Level Estimated
11:11AM 31.6345 121.0298 149° Southeast  Level Estimated
11:12AM 31.5716 121.0742 149° Southeast  Level Estimated
11:13AM 31.5087 121.1185 149° Southeast  Level Estimated
11:14AM 31.4458 121.1627 149° Southeast  Level Estimated
11:15AM 31.3828 121.2069 149° Southeast  Level Estimated
11:16AM 31.3199 121.2510 149° Southeast  Level Estimated
11:17AM 31.2569 121.2951 149° Southeast  Level Estimated
11:18AM 31.1979 121.3363 149° Southeast  Level Estimated
11:19AM 31.1979 121.3363 350° North  Level Estimated
11:20AM 31.1979 121.3363 350° North  Level Estimated
11:21AM 31.1979 121.3363 350° North  Level Estimated
11:22AM 31.1979 121.3363 350° North  Level Estimated
11:23AM 31.1979 121.3363 350° North  Level Estimated
11:24AM 31.1979 121.3363 350° North  Level Estimated
11:25AM 31.1979 121.3363 350° North  Level Estimated
11:26AM 31.1979 121.3363 350° North  Level Estimated
11:27AM 31.1979 121.3363 350° North  Level Estimated
11:28AM 31.1979 121.3363 350° North  Level Estimated
11:29AM 31.1979 121.3363 350° North  Level Estimated